Home > Products > Valid Products > TAF

000
FTUS41 KCTP 261518 AAA
TAFMDT
TAF AMD
KMDT 261518Z 2615/2712 33009KT P6SM SCT050
     FM262300 32005KT P6SM SCT060 BKN120=



000
FTUS41 KCTP 261518 AAA
TAFUNV
TAF AMD
KUNV 261518Z 2615/2712 36008KT P6SM SCT050
     FM262300 33004KT P6SM BKN040=



000
FTUS41 KCTP 261518 AAA
TAFJST
TAF AMD
KJST 261518Z 2615/2712 36010KT P6SM SCT050
     FM261900 34009KT P6SM BKN050
     FM270000 33007KT P6SM BKN040
     FM270700 32003KT P6SM OVC015=



000
FTUS41 KCTP 261518 AAA
TAFAOO
TAF AMD
KAOO 261518Z 2615/2712 36008KT P6SM SCT050
     FM262300 33004KT P6SM BKN040=



000
FTUS41 KCTP 261518 AAA
TAFBFD
TAF AMD
KBFD 261518Z 2615/2712 34010G17KT P6SM BKN040
     FM262300 33007KT P6SM BKN040
     FM270400 32003KT P6SM OVC015=



000
FTUS41 KCTP 261518 AAA
TAFIPT
TAF AMD
KIPT 261518Z 2615/2712 VRB03KT P6SM SCT050
     FM261900 33009KT P6SM BKN050
     FM262300 30004KT P6SM BKN040=



000
FTUS41 KCTP 261518 AAA
TAFAOO
TAF AMD
KAOO 261518Z 2615/2712 36008KT P6SM SCT050
     FM262300 33004KT P6SM BKN040=



000
FTUS41 KCTP 261518 AAA
TAFUNV
TAF AMD
KUNV 261518Z 2615/2712 36008KT P6SM SCT050
     FM262300 33004KT P6SM BKN040=



000
FTUS41 KCTP 261518 AAA
TAFBFD
TAF AMD
KBFD 261518Z 2615/2712 34010G17KT P6SM BKN040
     FM262300 33007KT P6SM BKN040
     FM270400 32003KT P6SM OVC015=



000
FTUS41 KCTP 261140
TAFAOO
TAF
KAOO 261140Z 2612/2712 02006KT P6SM SCT150
     FM261500 36008KT P6SM BKN050
     FM262300 33004KT P6SM BKN040=



000
FTUS41 KCTP 261140
TAFUNV
TAF
KUNV 261140Z 2612/2712 03005KT P6SM SKC
     FM261500 36008KT P6SM BKN050
     FM262300 33004KT P6SM BKN040=



000
FTUS41 KCTP 261140
TAFMDT
TAF
KMDT 261140Z 2612/2712 32005KT P6SM BKN200
     FM261500 33009KT P6SM FEW060
     FM262300 32005KT P6SM SCT060=



000
FTUS41 KCTP 261140
TAFJST
TAF
KJST 261140Z 2612/2712 04006KT P6SM SCT150
     FM261600 36010KT P6SM BKN050
     FM262300 33007KT P6SM BKN040
     FM270700 32003KT P6SM OVC015=



000
FTUS41 KCTP 261140
TAFAOO
TAF
KAOO 261140Z 2612/2712 02006KT P6SM SCT150
     FM261500 36008KT P6SM BKN050
     FM262300 33004KT P6SM BKN040=



000
FTUS41 KCTP 261140
TAFUNV
TAF
KUNV 261140Z 2612/2712 03005KT P6SM SKC
     FM261500 36008KT P6SM BKN050
     FM262300 33004KT P6SM BKN040=



000
FTUS41 KCTP 261140
TAFIPT
TAF
KIPT 261140Z 2612/2712 VRB03KT P6SM SKC
     FM261600 33009KT P6SM BKN050
     FM262300 30004KT P6SM BKN040=



000
FTUS41 KCTP 261140
TAFBFD
TAF
KBFD 261140Z 2612/2712 02005KT P6SM SKC
     FM261500 36010G17KT P6SM BKN050
     FM262300 33007KT P6SM BKN040
     FM270400 32003KT P6SM OVC015=



000
FTUS41 KCTP 261140
TAFJST
TAF
KJST 261140Z 2612/2712 04006KT P6SM SCT150
     FM261600 36010KT P6SM BKN050
     FM262300 33007KT P6SM BKN040
     FM270700 32003KT P6SM OVC015=



000
FTUS41 KCTP 261140
TAFMDT
TAF
KMDT 261140Z 2612/2712 32005KT P6SM BKN200
     FM261500 33009KT P6SM FEW060
     FM262300 32005KT P6SM SCT060=



000
FTUS41 KCTP 261140
TAFBFD
TAF
KBFD 261140Z 2612/2712 02005KT P6SM SKC
     FM261500 36010G17KT P6SM BKN050
     FM262300 33007KT P6SM BKN040
     FM270400 32003KT P6SM OVC015=



000
FTUS41 KCTP 261140
TAFUNV
TAF
KUNV 261140Z 2612/2712 03005KT P6SM SKC
     FM261500 36008KT P6SM BKN050
     FM262300 33004KT P6SM BKN040=



000
FTUS41 KCTP 261140
TAFAOO
TAF
KAOO 261140Z 2612/2712 02006KT P6SM SCT150
     FM261500 36008KT P6SM BKN050
     FM262300 33004KT P6SM BKN040=



000
FTUS41 KCTP 261140
TAFJST
TAF
KJST 261140Z 2612/2712 04006KT P6SM SCT150
     FM261600 36010KT P6SM BKN050
     FM262300 33007KT P6SM BKN040
     FM270700 32003KT P6SM OVC015=



000
FTUS41 KCTP 261140
TAFIPT
TAF
KIPT 261140Z 2612/2712 VRB03KT P6SM SKC
     FM261600 33009KT P6SM BKN050
     FM262300 30004KT P6SM BKN040=



000
FTUS41 KCTP 261140
TAFMDT
TAF
KMDT 261140Z 2612/2712 32005KT P6SM BKN200
     FM261500 33009KT P6SM FEW060
     FM262300 32005KT P6SM SCT060=



000
FTUS41 KCTP 261140
TAFIPT
TAF
KIPT 261140Z 2612/2712 VRB03KT P6SM SKC
     FM261600 33009KT P6SM BKN050
     FM262300 30004KT P6SM BKN040=



000
FTUS41 KCTP 261140
TAFBFD
TAF
KBFD 261140Z 2612/2712 02005KT P6SM SKC
     FM261500 36010G17KT P6SM BKN050
     FM262300 33007KT P6SM BKN040
     FM270400 32003KT P6SM OVC015=



000
FTUS41 KCTP 261140
TAFUNV
TAF
KUNV 261140Z 2612/2712 03005KT P6SM SKC
     FM261500 36008KT P6SM BKN050
     FM262300 33004KT P6SM BKN040=



000
FTUS41 KCTP 261140
TAFMDT
TAF
KMDT 261140Z 2612/2712 32005KT P6SM BKN200
     FM261500 33009KT P6SM FEW060
     FM262300 32005KT P6SM SCT060=



000
FTUS41 KCTP 261140
TAFIPT
TAF
KIPT 261140Z 2612/2712 VRB03KT P6SM SKC
     FM261600 33009KT P6SM BKN050
     FM262300 30004KT P6SM BKN040=



000
FTUS41 KCTP 261140
TAFBFD
TAF
KBFD 261140Z 2612/2712 02005KT P6SM SKC
     FM261500 36010G17KT P6SM BKN050
     FM262300 33007KT P6SM BKN040
     FM270400 32003KT P6SM OVC015=



000
FTUS41 KCTP 261140
TAFJST
TAF
KJST 261140Z 2612/2712 04006KT P6SM SCT150
     FM261600 36010KT P6SM BKN050
     FM262300 33007KT P6SM BKN040
     FM270700 32003KT P6SM OVC015=



000
FTUS41 KCTP 261140
TAFAOO
TAF
KAOO 261140Z 2612/2712 02006KT P6SM SCT150
     FM261500 36008KT P6SM BKN050
     FM262300 33004KT P6SM BKN040=



000
FTUS41 KCTP 260915 AAA
TAFUNV
TAF AMD
KUNV 260915Z 2609/2706 03005KT P6SM BKN250
     FM261500 36008KT P6SM BKN050=



000
FTUS41 KCTP 260915 AAA
TAFJST
TAF AMD
KJST 260915Z 2609/2706 04006KT P6SM OVC150
     FM261500 36010KT P6SM BKN050=



000
FTUS41 KCTP 260915 AAA
TAFAOO
TAF AMD
KAOO 260915Z 2609/2706 02006KT P6SM OVC150
     FM261500 36008KT P6SM BKN050=



000
FTUS41 KCTP 260915 AAA
TAFIPT
TAF AMD
KIPT 260915Z 2609/2706 VRB03KT P6SM SKC
     FM261500 36008KT P6SM BKN050=



000
FTUS41 KCTP 260915 AAA
TAFBFD
TAF AMD
KBFD 260915Z 2609/2706 02005KT P6SM SKC
     FM261500 36010G16KT P6SM BKN050
     FM262300 33007KT P6SM BKN040=



000
FTUS41 KCTP 260915 AAA
TAFBFD
TAF AMD
KBFD 260915Z 2609/2706 02005KT P6SM SKC
     FM261500 36010G16KT P6SM BKN050
     FM262300 33007KT P6SM BKN040=



000
FTUS41 KCTP 260915 AAA
TAFUNV
TAF AMD
KUNV 260915Z 2609/2706 03005KT P6SM BKN250
     FM261500 36008KT P6SM BKN050=



000
FTUS41 KCTP 260915 AAA
TAFIPT
TAF AMD
KIPT 260915Z 2609/2706 VRB03KT P6SM SKC
     FM261500 36008KT P6SM BKN050=



000
FTUS41 KCTP 260915 AAA
TAFMDT
TAF AMD
KMDT 260915Z 2609/2706 32005KT P6SM BKN150
     FM261500 33009KT P6SM FEW060=



000
FTUS41 KCTP 260915 AAA
TAFMDT
TAF AMD
KMDT 260915Z 2609/2706 32005KT P6SM BKN150
     FM261500 33009KT P6SM FEW060=



000
FTUS41 KCTP 260915 AAA
TAFAOO
TAF AMD
KAOO 260915Z 2609/2706 02006KT P6SM OVC150
     FM261500 36008KT P6SM BKN050=



000
FTUS41 KCTP 260915 AAA
TAFJST
TAF AMD
KJST 260915Z 2609/2706 04006KT P6SM OVC150
     FM261500 36010KT P6SM BKN050=



000
FTUS41 KCTP 260547
TAFBFD
TAF
KBFD 260547Z 2606/2706 05005KT P6SM SCT250
     FM261500 36010G16KT P6SM BKN050
     FM262300 33007KT P6SM BKN040=



000
FTUS41 KCTP 260547
TAFAOO
TAF
KAOO 260547Z 2606/2706 VRB04KT P6SM SCT035 OVC100
     FM261000 02006KT P6SM OVC100
     FM261500 36008KT P6SM BKN050=



000
FTUS41 KCTP 260547
TAFIPT
TAF
KIPT 260547Z 2606/2706 04005KT P6SM FEW100 BKN250
     FM261500 36008KT P6SM BKN050=



000
FTUS41 KCTP 260547
TAFJST
TAF
KJST 260547Z 2606/2706 VRB04KT P6SM SCT035 OVC100
     FM261000 02006KT P6SM OVC100
     FM261500 36010KT P6SM BKN050=



000
FTUS41 KCTP 260547
TAFIPT
TAF
KIPT 260547Z 2606/2706 04005KT P6SM FEW100 BKN250
     FM261500 36008KT P6SM BKN050=



000
FTUS41 KCTP 260547
TAFUNV
TAF
KUNV 260547Z 2606/2706 04005KT P6SM FEW100 BKN250
     FM261500 36008KT P6SM BKN050=



000
FTUS41 KCTP 260547
TAFBFD
TAF
KBFD 260547Z 2606/2706 05005KT P6SM SCT250
     FM261500 36010G16KT P6SM BKN050
     FM262300 33007KT P6SM BKN040=



000
FTUS41 KCTP 260547
TAFAOO
TAF
KAOO 260547Z 2606/2706 VRB04KT P6SM SCT035 OVC100
     FM261000 02006KT P6SM OVC100
     FM261500 36008KT P6SM BKN050=



000
FTUS41 KCTP 260547
TAFJST
TAF
KJST 260547Z 2606/2706 VRB04KT P6SM SCT035 OVC100
     FM261000 02006KT P6SM OVC100
     FM261500 36010KT P6SM BKN050=



000
FTUS41 KCTP 260547
TAFUNV
TAF
KUNV 260547Z 2606/2706 04005KT P6SM FEW100 BKN250
     FM261500 36008KT P6SM BKN050=



000
FTUS41 KCTP 260547
TAFMDT
TAF
KMDT 260547Z 2606/2706 VRB04KT P6SM BKN200
     FM260900 34005KT P6SM BKN100
     FM261500 33009KT P6SM FEW060=



000
FTUS41 KCTP 260547
TAFMDT
TAF
KMDT 260547Z 2606/2706 VRB04KT P6SM BKN200
     FM260900 34005KT P6SM BKN100
     FM261500 33009KT P6SM FEW060=



000
FTUS41 KCTP 260333 AAA
TAFJST
TAF AMD
KJST 260333Z 2604/2624 10007KT P6SM OVC070
     FM260500 12006KT P6SM -RA OVC040
     FM260800 05007KT P6SM OVC035
     FM261300 02008G15KT P6SM SCT035=



000
FTUS41 KCTP 260333 AAA
TAFUNV
TAF AMD
KUNV 260333Z 2604/2624 12007KT P6SM BKN100
     FM261300 02008G15KT P6SM SCT250=



000
FTUS41 KCTP 260333 AAA
TAFAOO
TAF AMD
KAOO 260333Z 2604/2624 10006KT P6SM BKN100
     FM261300 02008G15KT P6SM SCT250=



000
FTUS41 KCTP 260333 AAA
TAFBFD
TAF AMD
KBFD 260333Z 2604/2624 03008KT P6SM SCT250
     FM261500 02008G15KT P6SM BKN040=



000
FTUS41 KCTP 260333 AAA
TAFMDT
TAF AMD
KMDT 260333Z 2604/2624 17006KT P6SM BKN100
     FM261500 35008G15KT P6SM BKN250=



000
FTUS41 KCTP 260333 AAA
TAFIPT
TAF AMD
KIPT 260333Z 2604/2624 VRB05KT P6SM SCT250
     FM261400 35008G15KT P6SM SCT250=



000
FTUS41 KCTP 260333 AAA
TAFAOO
TAF AMD
KAOO 260333Z 2604/2624 10006KT P6SM BKN100
     FM261300 02008G15KT P6SM SCT250=



000
FTUS41 KCTP 260333 AAA
TAFJST
TAF AMD
KJST 260333Z 2604/2624 10007KT P6SM OVC070
     FM260500 12006KT P6SM -RA OVC040
     FM260800 05007KT P6SM OVC035
     FM261300 02008G15KT P6SM SCT035=



000
FTUS41 KCTP 260333 AAA
TAFMDT
TAF AMD
KMDT 260333Z 2604/2624 17006KT P6SM BKN100
     FM261500 35008G15KT P6SM BKN250=



000
FTUS41 KCTP 260333 AAA
TAFIPT
TAF AMD
KIPT 260333Z 2604/2624 VRB05KT P6SM SCT250
     FM261400 35008G15KT P6SM SCT250=



000
FTUS41 KCTP 260333 AAA
TAFBFD
TAF AMD
KBFD 260333Z 2604/2624 03008KT P6SM SCT250
     FM261500 02008G15KT P6SM BKN040=



000
FTUS41 KCTP 260333 AAA
TAFUNV
TAF AMD
KUNV 260333Z 2604/2624 12007KT P6SM BKN100
     FM261300 02008G15KT P6SM SCT250=



000
FTUS41 KCTP 260333 AAA
TAFJST
TAF AMD
KJST 260333Z 2604/2624 10007KT P6SM OVC070
     FM260500 12006KT P6SM -RA OVC040
     FM260800 05007KT P6SM OVC035
     FM261300 02008G15KT P6SM SCT035=



000
FTUS41 KCTP 260333 AAA
TAFBFD
TAF AMD
KBFD 260333Z 2604/2624 03008KT P6SM SCT250
     FM261500 02008G15KT P6SM BKN040=



000
FTUS41 KCTP 260333 AAA
TAFMDT
TAF AMD
KMDT 260333Z 2604/2624 17006KT P6SM BKN100
     FM261500 35008G15KT P6SM BKN250=



000
FTUS41 KCTP 260333 AAA
TAFUNV
TAF AMD
KUNV 260333Z 2604/2624 12007KT P6SM BKN100
     FM261300 02008G15KT P6SM SCT250=



000
FTUS41 KCTP 260333 AAA
TAFAOO
TAF AMD
KAOO 260333Z 2604/2624 10006KT P6SM BKN100
     FM261300 02008G15KT P6SM SCT250=



000
FTUS41 KCTP 260333 AAA
TAFIPT
TAF AMD
KIPT 260333Z 2604/2624 VRB05KT P6SM SCT250
     FM261400 35008G15KT P6SM SCT250=



000
FTUS41 KCTP 252340
TAFIPT
TAF
KIPT 252340Z 2600/2624 VRB05KT P6SM SCT250
     FM261400 35008G15KT P6SM SCT250=



000
FTUS41 KCTP 252340
TAFUNV
TAF
KUNV 252340Z 2600/2624 12006KT P6SM BKN100
     FM261300 02008G15KT P6SM SCT250=



000
FTUS41 KCTP 252340
TAFMDT
TAF
KMDT 252340Z 2600/2624 17006KT P6SM BKN100
     FM261500 35008G15KT P6SM BKN250=



000
FTUS41 KCTP 252340
TAFJST
TAF
KJST 252340Z 2600/2624 10007KT P6SM OVC070
     FM260200 12007KT P6SM -RA OVC040
     FM260500 05007KT 5SM -RA BR OVC030
     FM261300 02008G15KT P6SM SCT035=



000
FTUS41 KCTP 252340
TAFBFD
TAF
KBFD 252340Z 2600/2624 03008KT P6SM SCT250
     FM261500 02008G15KT P6SM BKN040=



000
FTUS41 KCTP 252340
TAFIPT
TAF
KIPT 252340Z 2600/2624 VRB05KT P6SM SCT250
     FM261400 35008G15KT P6SM SCT250=



000
FTUS41 KCTP 252340
TAFAOO
TAF
KAOO 252340Z 2600/2624 10006KT P6SM BKN100
     FM261300 02008G15KT P6SM SCT250=



000
FTUS41 KCTP 252340
TAFUNV
TAF
KUNV 252340Z 2600/2624 12006KT P6SM BKN100
     FM261300 02008G15KT P6SM SCT250=



000
FTUS41 KCTP 252340
TAFBFD
TAF
KBFD 252340Z 2600/2624 03008KT P6SM SCT250
     FM261500 02008G15KT P6SM BKN040=



000
FTUS41 KCTP 252340
TAFMDT
TAF
KMDT 252340Z 2600/2624 17006KT P6SM BKN100
     FM261500 35008G15KT P6SM BKN250=



000
FTUS41 KCTP 252340
TAFJST
TAF
KJST 252340Z 2600/2624 10007KT P6SM OVC070
     FM260200 12007KT P6SM -RA OVC040
     FM260500 05007KT 5SM -RA BR OVC030
     FM261300 02008G15KT P6SM SCT035=



000
FTUS41 KCTP 252340
TAFAOO
TAF
KAOO 252340Z 2600/2624 10006KT P6SM BKN100
     FM261300 02008G15KT P6SM SCT250=



000
FTUS41 KCTP 252340
TAFUNV
TAF
KUNV 252340Z 2600/2624 12006KT P6SM BKN100
     FM261300 02008G15KT P6SM SCT250=



000
FTUS41 KCTP 252340
TAFAOO
TAF
KAOO 252340Z 2600/2624 10006KT P6SM BKN100
     FM261300 02008G15KT P6SM SCT250=



000
FTUS41 KCTP 252340
TAFBFD
TAF
KBFD 252340Z 2600/2624 03008KT P6SM SCT250
     FM261500 02008G15KT P6SM BKN040=



000
FTUS41 KCTP 252340
TAFIPT
TAF
KIPT 252340Z 2600/2624 VRB05KT P6SM SCT250
     FM261400 35008G15KT P6SM SCT250=



000
FTUS41 KCTP 252340
TAFMDT
TAF
KMDT 252340Z 2600/2624 17006KT P6SM BKN100
     FM261500 35008G15KT P6SM BKN250=



000
FTUS41 KCTP 252340
TAFJST
TAF
KJST 252340Z 2600/2624 10007KT P6SM OVC070
     FM260200 12007KT P6SM -RA OVC040
     FM260500 05007KT 5SM -RA BR OVC030
     FM261300 02008G15KT P6SM SCT035=



000
FTUS41 KCTP 252141 AAA
TAFUNV
TAF AMD
KUNV 252141Z 2522/2618 VRB03KT P6SM BKN100
     FM261500 03004KT P6SM BKN250=



000
FTUS41 KCTP 252141 AAA
TAFAOO
TAF AMD
KAOO 252141Z 2522/2618 VRB03KT P6SM BKN100
     FM260200 12003KT P6SM VCSH OVC050
     FM261500 03004KT P6SM SCT250=



000
FTUS41 KCTP 252141 AAA
TAFIPT
TAF AMD
KIPT 252141Z 2522/2618 VRB05KT P6SM SCT120
     FM261500 33005KT P6SM OVC250=



000
FTUS41 KCTP 252141 AAA
TAFJST
TAF AMD
KJST 252141Z 2522/2618 VRB03KT P6SM OVC050
     FM260100 10005KT P6SM -RA OVC040
     FM260400 05005KT 4SM -RA BR OVC015
     FM261500 03005KT P6SM SCT250=



000
FTUS41 KCTP 252141 AAA
TAFBFD
TAF AMD
KBFD 252141Z 2522/2618 VRB03KT P6SM SCT150
     FM261500 02009KT P6SM OVC050=



000
FTUS41 KCTP 252141 AAA
TAFJST
TAF AMD
KJST 252141Z 2522/2618 VRB03KT P6SM OVC050
     FM260100 10005KT P6SM -RA OVC040
     FM260400 05005KT 4SM -RA BR OVC015
     FM261500 03005KT P6SM SCT250=



000
FTUS41 KCTP 252141 AAA
TAFAOO
TAF AMD
KAOO 252141Z 2522/2618 VRB03KT P6SM BKN100
     FM260200 12003KT P6SM VCSH OVC050
     FM261500 03004KT P6SM SCT250=



000
FTUS41 KCTP 252141 AAA
TAFUNV
TAF AMD
KUNV 252141Z 2522/2618 VRB03KT P6SM BKN100
     FM261500 03004KT P6SM BKN250=



000
FTUS41 KCTP 252141 AAA
TAFBFD
TAF AMD
KBFD 252141Z 2522/2618 VRB03KT P6SM SCT150
     FM261500 02009KT P6SM OVC050=



000
FTUS41 KCTP 252141 AAA
TAFIPT
TAF AMD
KIPT 252141Z 2522/2618 VRB05KT P6SM SCT120
     FM261500 33005KT P6SM OVC250=



000
FTUS41 KCTP 252141 AAA
TAFMDT
TAF AMD
KMDT 252141Z 2522/2618 28005KT P6SM BKN100
     FM261500 35006KT P6SM SCT250=



000
FTUS41 KCTP 252141 AAA
TAFMDT
TAF AMD
KMDT 252141Z 2522/2618 28005KT P6SM BKN100
     FM261500 35006KT P6SM SCT250=



000
FTUS41 KCTP 251720
TAFJST
TAF
KJST 251720Z 2518/2618 VRB03KT P6SM OVC050
     FM252100 10005KT P6SM -RA OVC040
     FM260300 05005KT 4SM -RA BR OVC015
     FM261500 03005KT P6SM SCT250=



000
FTUS41 KCTP 251720
TAFUNV
TAF
KUNV 251720Z 2518/2618 VRB03KT P6SM BKN100
     FM261500 03004KT P6SM BKN250=



000
FTUS41 KCTP 251720
TAFAOO
TAF
KAOO 251720Z 2518/2618 VRB03KT P6SM BKN100
     FM260000 12003KT P6SM VCSH OVC050
     FM261500 03004KT P6SM SCT250=



000
FTUS41 KCTP 251720
TAFUNV
TAF
KUNV 251720Z 2518/2618 VRB03KT P6SM BKN100
     FM261500 03004KT P6SM BKN250=



000
FTUS41 KCTP 251720
TAFMDT
TAF
KMDT 251720Z 2518/2618 28005KT P6SM BKN100
     FM261500 35006KT P6SM SCT250=



000
FTUS41 KCTP 251720
TAFAOO
TAF
KAOO 251720Z 2518/2618 VRB03KT P6SM BKN100
     FM260000 12003KT P6SM VCSH OVC050
     FM261500 03004KT P6SM SCT250=



000
FTUS41 KCTP 251720
TAFJST
TAF
KJST 251720Z 2518/2618 VRB03KT P6SM OVC050
     FM252100 10005KT P6SM -RA OVC040
     FM260300 05005KT 4SM -RA BR OVC015
     FM261500 03005KT P6SM SCT250=



000
FTUS41 KCTP 251720
TAFBFD
TAF
KBFD 251720Z 2518/2618 VRB03KT P6SM BKN150
     FM261500 02009KT P6SM OVC050=



000
FTUS41 KCTP 251720
TAFJST
TAF
KJST 251720Z 2518/2618 VRB03KT P6SM OVC050
     FM252100 10005KT P6SM -RA OVC040
     FM260300 05005KT 4SM -RA BR OVC015
     FM261500 03005KT P6SM SCT250=



000
FTUS41 KCTP 251720
TAFBFD
TAF
KBFD 251720Z 2518/2618 VRB03KT P6SM BKN150
     FM261500 02009KT P6SM OVC050=



000
FTUS41 KCTP 251720
TAFIPT
TAF
KIPT 251720Z 2518/2618 VRB05KT P6SM BKN120
     FM261500 33005KT P6SM OVC250=



000
FTUS41 KCTP 251720
TAFUNV
TAF
KUNV 251720Z 2518/2618 VRB03KT P6SM BKN100
     FM261500 03004KT P6SM BKN250=



000
FTUS41 KCTP 251720
TAFMDT
TAF
KMDT 251720Z 2518/2618 28005KT P6SM BKN100
     FM261500 35006KT P6SM SCT250=



000
FTUS41 KCTP 251720
TAFIPT
TAF
KIPT 251720Z 2518/2618 VRB05KT P6SM BKN120
     FM261500 33005KT P6SM OVC250=



000
FTUS41 KCTP 251720
TAFAOO
TAF
KAOO 251720Z 2518/2618 VRB03KT P6SM BKN100
     FM260000 12003KT P6SM VCSH OVC050
     FM261500 03004KT P6SM SCT250=



000
FTUS41 KCTP 251720
TAFBFD
TAF
KBFD 251720Z 2518/2618 VRB03KT P6SM BKN150
     FM261500 02009KT P6SM OVC050=



000
FTUS41 KCTP 251720
TAFUNV
TAF
KUNV 251720Z 2518/2618 VRB03KT P6SM BKN100
     FM261500 03004KT P6SM BKN250=



000
FTUS41 KCTP 251720
TAFBFD
TAF
KBFD 251720Z 2518/2618 VRB03KT P6SM BKN150
     FM261500 02009KT P6SM OVC050=



000
FTUS41 KCTP 251720
TAFIPT
TAF
KIPT 251720Z 2518/2618 VRB05KT P6SM BKN120
     FM261500 33005KT P6SM OVC250=



000
FTUS41 KCTP 251525 AAA
TAFUNV
TAF AMD
KUNV 251525Z 2515/2612 VRB03KT P6SM OVC100=



000
FTUS41 KCTP 251525 AAA
TAFMDT
TAF AMD
KMDT 251525Z 2515/2612 VRB03KT P6SM OVC100
     FM260000 VRB03KT P6SM OVC050=



000
FTUS41 KCTP 251525 AAA
TAFBFD
TAF AMD
KBFD 251525Z 2515/2612 VRB03KT P6SM BKN150=



000
FTUS41 KCTP 251525 AAA
TAFIPT
TAF AMD
KIPT 251525Z 2515/2612 VRB03KT P6SM BKN120=



000
FTUS41 KCTP 251525 AAA
TAFJST
TAF AMD
KJST 251525Z 2515/2612 20007KT P6SM OVC050
     FM252100 10005KT P6SM -RA OVC040
     FM260300 05005KT 4SM -RA BR OVC015=



000
FTUS41 KCTP 251525 AAA
TAFMDT
TAF AMD
KMDT 251525Z 2515/2612 VRB03KT P6SM OVC100
     FM260000 VRB03KT P6SM OVC050=



000
FTUS41 KCTP 251525 AAA
TAFJST
TAF AMD
KJST 251525Z 2515/2612 20007KT P6SM OVC050
     FM252100 10005KT P6SM -RA OVC040
     FM260300 05005KT 4SM -RA BR OVC015=



000
FTUS41 KCTP 251525 AAA
TAFBFD
TAF AMD
KBFD 251525Z 2515/2612 VRB03KT P6SM BKN150=



000
FTUS41 KCTP 251525 AAA
TAFAOO
TAF AMD
KAOO 251525Z 2515/2612 02005KT P6SM OVC080
     FM260000 12003KT 5SM -RA BR OVC050=



000
FTUS41 KCTP 251525 AAA
TAFUNV
TAF AMD
KUNV 251525Z 2515/2612 VRB03KT P6SM OVC100=



000
FTUS41 KCTP 251525 AAA
TAFAOO
TAF AMD
KAOO 251525Z 2515/2612 02005KT P6SM OVC080
     FM260000 12003KT 5SM -RA BR OVC050=



000
FTUS41 KCTP 251525 AAA
TAFIPT
TAF AMD
KIPT 251525Z 2515/2612 VRB03KT P6SM BKN120=



000
FTUS41 KCTP 251157
TAFJST
TAF
KJST 251157Z 2512/2612 24005KT P6SM OVC040
     FM251500 15005KT P6SM OVC050
     FM252100 10005KT P6SM -RA OVC040
     FM260300 05005KT P6SM -RA OVC025=



000
FTUS41 KCTP 251157
TAFUNV
TAF
KUNV 251157Z 2512/2612 VRB03KT P6SM OVC100=



000
FTUS41 KCTP 251157
TAFBFD
TAF
KBFD 251157Z 2512/2612 02003KT P6SM BKN150
     FM251800 05005KT P6SM BKN150=



000
FTUS41 KCTP 251157
TAFAOO
TAF
KAOO 251157Z 2512/2612 VRB03KT P6SM OVC070
     FM252200 07003KT P6SM -RA OVC050=



000
FTUS41 KCTP 251157
TAFMDT
TAF
KMDT 251157Z 2512/2612 VRB03KT P6SM OVC100
     FM260000 VRB03KT P6SM OVC050 PROB30 2600/2606 -RA=



000
FTUS41 KCTP 251157
TAFIPT
TAF
KIPT 251157Z 2512/2612 VRB03KT P6SM BKN120=



000
FTUS41 KCTP 251157
TAFIPT
TAF
KIPT 251157Z 2512/2612 VRB03KT P6SM BKN120=



000
FTUS41 KCTP 251157
TAFUNV
TAF
KUNV 251157Z 2512/2612 VRB03KT P6SM OVC100=



000
FTUS41 KCTP 251157
TAFAOO
TAF
KAOO 251157Z 2512/2612 VRB03KT P6SM OVC070
     FM252200 07003KT P6SM -RA OVC050=



000
FTUS41 KCTP 251157
TAFBFD
TAF
KBFD 251157Z 2512/2612 02003KT P6SM BKN150
     FM251800 05005KT P6SM BKN150=



000
FTUS41 KCTP 251157
TAFJST
TAF
KJST 251157Z 2512/2612 24005KT P6SM OVC040
     FM251500 15005KT P6SM OVC050
     FM252100 10005KT P6SM -RA OVC040
     FM260300 05005KT P6SM -RA OVC025=



000
FTUS41 KCTP 251157
TAFBFD
TAF
KBFD 251157Z 2512/2612 02003KT P6SM BKN150
     FM251800 05005KT P6SM BKN150=



000
FTUS41 KCTP 251157
TAFJST
TAF
KJST 251157Z 2512/2612 24005KT P6SM OVC040
     FM251500 15005KT P6SM OVC050
     FM252100 10005KT P6SM -RA OVC040
     FM260300 05005KT P6SM -RA OVC025=



000
FTUS41 KCTP 251157
TAFMDT
TAF
KMDT 251157Z 2512/2612 VRB03KT P6SM OVC100
     FM260000 VRB03KT P6SM OVC050 PROB30 2600/2606 -RA=



000
FTUS41 KCTP 251157
TAFAOO
TAF
KAOO 251157Z 2512/2612 VRB03KT P6SM OVC070
     FM252200 07003KT P6SM -RA OVC050=



000
FTUS41 KCTP 251157
TAFIPT
TAF
KIPT 251157Z 2512/2612 VRB03KT P6SM BKN120=



000
FTUS41 KCTP 251157
TAFUNV
TAF
KUNV 251157Z 2512/2612 VRB03KT P6SM OVC100=



000
FTUS41 KCTP 251157
TAFMDT
TAF
KMDT 251157Z 2512/2612 VRB03KT P6SM OVC100
     FM260000 VRB03KT P6SM OVC050 PROB30 2600/2606 -RA=



000
FTUS41 KCTP 251157
TAFJST
TAF
KJST 251157Z 2512/2612 24005KT P6SM OVC040
     FM251500 15005KT P6SM OVC050
     FM252100 10005KT P6SM -RA OVC040
     FM260300 05005KT P6SM -RA OVC025=



000
FTUS41 KCTP 251157
TAFMDT
TAF
KMDT 251157Z 2512/2612 VRB03KT P6SM OVC100
     FM260000 VRB03KT P6SM OVC050 PROB30 2600/2606 -RA=



000
FTUS41 KCTP 251157
TAFIPT
TAF
KIPT 251157Z 2512/2612 VRB03KT P6SM BKN120=



000
FTUS41 KCTP 251157
TAFUNV
TAF
KUNV 251157Z 2512/2612 VRB03KT P6SM OVC100=



000
FTUS41 KCTP 251157
TAFAOO
TAF
KAOO 251157Z 2512/2612 VRB03KT P6SM OVC070
     FM252200 07003KT P6SM -RA OVC050=



000
FTUS41 KCTP 251157
TAFBFD
TAF
KBFD 251157Z 2512/2612 02003KT P6SM BKN150
     FM251800 05005KT P6SM BKN150=



000
FTUS41 KCTP 251106 AAB
TAFJST
TAF AMD
KJST 251106Z 2511/2606 25004KT P6SM OVC050
      TEMPO 2511/2513 3SM -SN OVC015
     FM251300 13005KT P6SM OVC050
     FM252100 10005KT P6SM -RA OVC050=



000
FTUS41 KCTP 251106 AAB
TAFJST
TAF AMD
KJST 251106Z 2511/2606 25004KT P6SM OVC050
      TEMPO 2511/2513 3SM -SN OVC015
     FM251300 13005KT P6SM OVC050
     FM252100 10005KT P6SM -RA OVC050=



000
FTUS41 KCTP 251106 AAB
TAFJST
TAF AMD
KJST 251106Z 2511/2606 25004KT P6SM OVC050
      TEMPO 2511/2513 3SM -SN OVC015
     FM251300 13005KT P6SM OVC050
     FM252100 10005KT P6SM -RA OVC050=



000
FTUS41 KCTP 251106 AAB
TAFJST
TAF AMD
KJST 251106Z 2511/2606 25004KT P6SM OVC050
      TEMPO 2511/2513 3SM -SN OVC015
     FM251300 13005KT P6SM OVC050
     FM252100 10005KT P6SM -RA OVC050=



000
FTUS41 KCTP 250939 AAA
TAFIPT
TAF AMD
KIPT 250939Z 2510/2606 30005KT P6SM SCT200
     FM251200 VRB03KT P6SM BKN150=



000
FTUS41 KCTP 250939 AAA
TAFBFD
TAF AMD
KBFD 250939Z 2510/2606 VRB03KT P6SM BKN150
     FM251800 03005KT P6SM SCT150=



000
FTUS41 KCTP 250939 AAA
TAFMDT
TAF AMD
KMDT 250939Z 2510/2606 VRB04KT P6SM SCT250
     FM251500 VRB04KT P6SM BKN150
     FM260000 VRB03KT P6SM OVC100=



000
FTUS41 KCTP 250939 AAA
TAFBFD
TAF AMD
KBFD 250939Z 2510/2606 VRB03KT P6SM BKN150
     FM251800 03005KT P6SM SCT150=



000
FTUS41 KCTP 250939 AAA
TAFUNV
TAF AMD
KUNV 250939Z 2510/2606 VRB03KT P6SM BKN150=



000
FTUS41 KCTP 250939 AAA
TAFMDT
TAF AMD
KMDT 250939Z 2510/2606 VRB04KT P6SM SCT250
     FM251500 VRB04KT P6SM BKN150
     FM260000 VRB03KT P6SM OVC100=



000
FTUS41 KCTP 250939 AAA
TAFUNV
TAF AMD
KUNV 250939Z 2510/2606 VRB03KT P6SM BKN150=



000
FTUS41 KCTP 250939 AAA
TAFJST
TAF AMD
KJST 250939Z 2510/2606 VRB04KT P6SM BKN050 OVC100
     FM251200 13005KT P6SM OVC050
     FM252100 10005KT P6SM -RA OVC050=



000
FTUS41 KCTP 250939 AAA
TAFIPT
TAF AMD
KIPT 250939Z 2510/2606 30005KT P6SM SCT200
     FM251200 VRB03KT P6SM BKN150=



000
FTUS41 KCTP 250939 AAA
TAFAOO
TAF AMD
KAOO 250939Z 2510/2606 VRB04KT P6SM OVC100
     FM252200 07003KT P6SM -RA OVC050=



000
FTUS41 KCTP 250939 AAA
TAFAOO
TAF AMD
KAOO 250939Z 2510/2606 VRB04KT P6SM OVC100
     FM252200 07003KT P6SM -RA OVC050=



000
FTUS41 KCTP 250939 AAA
TAFJST
TAF AMD
KJST 250939Z 2510/2606 VRB04KT P6SM BKN050 OVC100
     FM251200 13005KT P6SM OVC050
     FM252100 10005KT P6SM -RA OVC050=



000
FTUS41 KCTP 250550
TAFIPT
TAF
KIPT 250550Z 2506/2606 28004KT P6SM SKC
     FM251200 VRB03KT P6SM BKN150
     FM260000 VRB03KT P6SM BKN100=



000
FTUS41 KCTP 250550
TAFMDT
TAF
KMDT 250550Z 2506/2606 34005KT P6SM SKC
     FM251500 VRB04KT P6SM BKN150
     FM260000 VRB03KT P6SM OVC100=



000
FTUS41 KCTP 250550
TAFJST
TAF
KJST 250550Z 2506/2606 05005KT P6SM BKN150
     FM251200 15005KT P6SM OVC100
     FM260000 09005KT P6SM -RA OVC050=



000
FTUS41 KCTP 250550
TAFBFD
TAF
KBFD 250550Z 2506/2606 VRB03KT P6SM BKN250
     FM250900 36003KT P6SM BKN100
     FM251800 03005KT P6SM BKN150=



000
FTUS41 KCTP 250550
TAFUNV
TAF
KUNV 250550Z 2506/2606 VRB03KT P6SM SCT200
     FM251200 VRB03KT P6SM BKN150
     FM260000 VRB03KT P6SM BKN100=



000
FTUS41 KCTP 250550
TAFBFD
TAF
KBFD 250550Z 2506/2606 VRB03KT P6SM BKN250
     FM250900 36003KT P6SM BKN100
     FM251800 03005KT P6SM BKN150=



000
FTUS41 KCTP 250550
TAFUNV
TAF
KUNV 250550Z 2506/2606 VRB03KT P6SM SCT200
     FM251200 VRB03KT P6SM BKN150
     FM260000 VRB03KT P6SM BKN100=



000
FTUS41 KCTP 250550
TAFJST
TAF
KJST 250550Z 2506/2606 05005KT P6SM BKN150
     FM251200 15005KT P6SM OVC100
     FM260000 09005KT P6SM -RA OVC050=



000
FTUS41 KCTP 250550
TAFAOO
TAF
KAOO 250550Z 2506/2606 03005KT P6SM BKN200
     FM251200 12003KT P6SM OVC150
     FM260000 07003KT P6SM -RA OVC100=



000
FTUS41 KCTP 250550
TAFMDT
TAF
KMDT 250550Z 2506/2606 34005KT P6SM SKC
     FM251500 VRB04KT P6SM BKN150
     FM260000 VRB03KT P6SM OVC100=



000
FTUS41 KCTP 250550
TAFAOO
TAF
KAOO 250550Z 2506/2606 03005KT P6SM BKN200
     FM251200 12003KT P6SM OVC150
     FM260000 07003KT P6SM -RA OVC100=



000
FTUS41 KCTP 250550
TAFIPT
TAF
KIPT 250550Z 2506/2606 28004KT P6SM SKC
     FM251200 VRB03KT P6SM BKN150
     FM260000 VRB03KT P6SM BKN100=



000
FTUS41 KCTP 250520
TAFAOO
TAF
KAOO 250520Z 2506/2606 33007KT P6SM SKC
     FM252000 08007KT P6SM SCT100 BKN250=



000
FTUS41 KCTP 250520
TAFJST
TAF
KJST 250520Z 2506/2606 31008KT P6SM SKC
     FM250700 32007KT P6SM SKC
     FM251900 10007KT P6SM SCT100 BKN250=



000
FTUS41 KCTP 250520
TAFIPT
TAF
KIPT 250520Z 2506/2606 32007KT P6SM SKC
     FM252300 03007KT P6SM SCT250=



000
FTUS41 KCTP 250520
TAFMDT
TAF
KMDT 250520Z 2506/2606 33008KT P6SM SKC
     FM250700 32007KT P6SM SKC
     FM252200 07007KT P6SM SCT100 BKN250=



000
FTUS41 KCTP 250520
TAFBFD
TAF
KBFD 250520Z 2506/2606 29007KT P6SM SKC
     FM252000 07007KT P6SM BKN250=



000
FTUS41 KCTP 250520
TAFAOO
TAF
KAOO 250520Z 2506/2606 33007KT P6SM SKC
     FM252000 08007KT P6SM SCT100 BKN250=



000
FTUS41 KCTP 250520
TAFMDT
TAF
KMDT 250520Z 2506/2606 33008KT P6SM SKC
     FM250700 32007KT P6SM SKC
     FM252200 07007KT P6SM SCT100 BKN250=



000
FTUS41 KCTP 250520
TAFUNV
TAF
KUNV 250520Z 2506/2606 33007KT P6SM SKC
     FM252100 06007KT P6SM BKN250=



000
FTUS41 KCTP 250520
TAFMDT
TAF
KMDT 250520Z 2506/2606 33008KT P6SM SKC
     FM250700 32007KT P6SM SKC
     FM252200 07007KT P6SM SCT100 BKN250=



000
FTUS41 KCTP 250520
TAFAOO
TAF
KAOO 250520Z 2506/2606 33007KT P6SM SKC
     FM252000 08007KT P6SM SCT100 BKN250=



000
FTUS41 KCTP 250520
TAFUNV
TAF
KUNV 250520Z 2506/2606 33007KT P6SM SKC
     FM252100 06007KT P6SM BKN250=



000
FTUS41 KCTP 250520
TAFMDT
TAF
KMDT 250520Z 2506/2606 33008KT P6SM SKC
     FM250700 32007KT P6SM SKC
     FM252200 07007KT P6SM SCT100 BKN250=



000
FTUS41 KCTP 250520
TAFUNV
TAF
KUNV 250520Z 2506/2606 33007KT P6SM SKC
     FM252100 06007KT P6SM BKN250=



000
FTUS41 KCTP 250520
TAFAOO
TAF
KAOO 250520Z 2506/2606 33007KT P6SM SKC
     FM252000 08007KT P6SM SCT100 BKN250=



000
FTUS41 KCTP 250520
TAFBFD
TAF
KBFD 250520Z 2506/2606 29007KT P6SM SKC
     FM252000 07007KT P6SM BKN250=



000
FTUS41 KCTP 250520
TAFJST
TAF
KJST 250520Z 2506/2606 31008KT P6SM SKC
     FM250700 32007KT P6SM SKC
     FM251900 10007KT P6SM SCT100 BKN250=



000
FTUS41 KCTP 250520
TAFUNV
TAF
KUNV 250520Z 2506/2606 33007KT P6SM SKC
     FM252100 06007KT P6SM BKN250=



000
FTUS41 KCTP 250520
TAFIPT
TAF
KIPT 250520Z 2506/2606 32007KT P6SM SKC
     FM252300 03007KT P6SM SCT250=



000
FTUS41 KCTP 250520
TAFJST
TAF
KJST 250520Z 2506/2606 31008KT P6SM SKC
     FM250700 32007KT P6SM SKC
     FM251900 10007KT P6SM SCT100 BKN250=



000
FTUS41 KCTP 250520
TAFJST
TAF
KJST 250520Z 2506/2606 31008KT P6SM SKC
     FM250700 32007KT P6SM SKC
     FM251900 10007KT P6SM SCT100 BKN250=



000
FTUS41 KCTP 250520
TAFIPT
TAF
KIPT 250520Z 2506/2606 32007KT P6SM SKC
     FM252300 03007KT P6SM SCT250=



000
FTUS41 KCTP 250520
TAFIPT
TAF
KIPT 250520Z 2506/2606 32007KT P6SM SKC
     FM252300 03007KT P6SM SCT250=



000
FTUS41 KCTP 250520
TAFBFD
TAF
KBFD 250520Z 2506/2606 29007KT P6SM SKC
     FM252000 07007KT P6SM BKN250=



000
FTUS41 KCTP 250520
TAFBFD
TAF
KBFD 250520Z 2506/2606 29007KT P6SM SKC
     FM252000 07007KT P6SM BKN250=



000
FTUS41 KCTP 250348 AAA
TAFAOO
TAF AMD
KAOO 250348Z 2504/2524 33007KT P6SM SKC
     FM252000 08007KT P6SM SCT100 BKN250=



000
FTUS41 KCTP 250348 AAA
TAFUNV
TAF AMD
KUNV 250348Z 2504/2524 33007KT P6SM SKC
     FM252100 06007KT P6SM BKN250=



000
FTUS41 KCTP 250348 AAA
TAFBFD
TAF AMD
KBFD 250348Z 2504/2524 30007KT P6SM SKC
     FM252000 07007KT P6SM BKN250=



000
FTUS41 KCTP 250348 AAA
TAFJST
TAF AMD
KJST 250348Z 2504/2524 31008KT P6SM SKC
     FM250700 32007KT P6SM SKC
     FM251900 10007KT P6SM SCT100 BKN250=



000
FTUS41 KCTP 250348 AAA
TAFAOO
TAF AMD
KAOO 250348Z 2504/2524 33007KT P6SM SKC
     FM252000 08007KT P6SM SCT100 BKN250=



000
FTUS41 KCTP 250348 AAA
TAFIPT
TAF AMD
KIPT 250348Z 2504/2524 33007KT P6SM SKC
     FM252300 03007KT P6SM SCT250=



000
FTUS41 KCTP 250348 AAA
TAFUNV
TAF AMD
KUNV 250348Z 2504/2524 33007KT P6SM SKC
     FM252100 06007KT P6SM BKN250=



000
FTUS41 KCTP 250348 AAA
TAFMDT
TAF AMD
KMDT 250348Z 2504/2524 33008KT P6SM SKC
     FM250700 32007KT P6SM SKC
     FM252200 07007KT P6SM SCT100 BKN250=



000
FTUS41 KCTP 250348 AAA
TAFJST
TAF AMD
KJST 250348Z 2504/2524 31008KT P6SM SKC
     FM250700 32007KT P6SM SKC
     FM251900 10007KT P6SM SCT100 BKN250=



000
FTUS41 KCTP 250348 AAA
TAFBFD
TAF AMD
KBFD 250348Z 2504/2524 30007KT P6SM SKC
     FM252000 07007KT P6SM BKN250=



000
FTUS41 KCTP 250348 AAA
TAFIPT
TAF AMD
KIPT 250348Z 2504/2524 33007KT P6SM SKC
     FM252300 03007KT P6SM SCT250=



000
FTUS41 KCTP 250348 AAA
TAFMDT
TAF AMD
KMDT 250348Z 2504/2524 33008KT P6SM SKC
     FM250700 32007KT P6SM SKC
     FM252200 07007KT P6SM SCT100 BKN250=



000
FTUS41 KCTP 242338
TAFUNV
TAF
KUNV 242338Z 2500/2524 32015G25KT P6SM SCT050
     FM250200 33007KT P6SM SKC
     FM252100 06007KT P6SM BKN250=



000
FTUS41 KCTP 242338
TAFBFD
TAF
KBFD 242338Z 2500/2524 31015G25KT P6SM SKC
     FM250100 32007KT P6SM SKC
     FM252000 07007KT P6SM BKN250=



000
FTUS41 KCTP 242338
TAFMDT
TAF
KMDT 242338Z 2500/2524 31016G28KT P6SM FEW050
     FM250400 32007KT P6SM SKC
     FM252200 07007KT P6SM SCT100 BKN250=



000
FTUS41 KCTP 242338
TAFJST
TAF
KJST 242338Z 2500/2524 30015G25KT P6SM SCT040
     FM250200 31008KT P6SM SKC
     FM250700 32007KT P6SM SKC
     FM251900 10007KT P6SM SCT100 BKN250=



000
FTUS41 KCTP 242338
TAFIPT
TAF
KIPT 242338Z 2500/2524 30016G26KT P6SM SKC
     FM250200 31007KT P6SM SKC
     FM252300 03007KT P6SM SCT250=



000
FTUS41 KCTP 242338
TAFAOO
TAF
KAOO 242338Z 2500/2524 32015G25KT P6SM SCT050
     FM250200 33007KT P6SM SKC
     FM252000 08007KT P6SM SCT100 BKN250=



000
FTUS41 KCTP 242338
TAFUNV
TAF
KUNV 242338Z 2500/2524 32015G25KT P6SM SCT050
     FM250200 33007KT P6SM SKC
     FM252100 06007KT P6SM BKN250=



000
FTUS41 KCTP 242338
TAFIPT
TAF
KIPT 242338Z 2500/2524 30016G26KT P6SM SKC
     FM250200 31007KT P6SM SKC
     FM252300 03007KT P6SM SCT250=



000
FTUS41 KCTP 242338
TAFAOO
TAF
KAOO 242338Z 2500/2524 32015G25KT P6SM SCT050
     FM250200 33007KT P6SM SKC
     FM252000 08007KT P6SM SCT100 BKN250=



000
FTUS41 KCTP 242338
TAFBFD
TAF
KBFD 242338Z 2500/2524 31015G25KT P6SM SKC
     FM250100 32007KT P6SM SKC
     FM252000 07007KT P6SM BKN250=



000
FTUS41 KCTP 242338
TAFIPT
TAF
KIPT 242338Z 2500/2524 30016G26KT P6SM SKC
     FM250200 31007KT P6SM SKC
     FM252300 03007KT P6SM SCT250=



000
FTUS41 KCTP 242338
TAFUNV
TAF
KUNV 242338Z 2500/2524 32015G25KT P6SM SCT050
     FM250200 33007KT P6SM SKC
     FM252100 06007KT P6SM BKN250=



000
FTUS41 KCTP 242338
TAFBFD
TAF
KBFD 242338Z 2500/2524 31015G25KT P6SM SKC
     FM250100 32007KT P6SM SKC
     FM252000 07007KT P6SM BKN250=



000
FTUS41 KCTP 242338
TAFJST
TAF
KJST 242338Z 2500/2524 30015G25KT P6SM SCT040
     FM250200 31008KT P6SM SKC
     FM250700 32007KT P6SM SKC
     FM251900 10007KT P6SM SCT100 BKN250=



000
FTUS41 KCTP 242338
TAFAOO
TAF
KAOO 242338Z 2500/2524 32015G25KT P6SM SCT050
     FM250200 33007KT P6SM SKC
     FM252000 08007KT P6SM SCT100 BKN250=



000
FTUS41 KCTP 242338
TAFJST
TAF
KJST 242338Z 2500/2524 30015G25KT P6SM SCT040
     FM250200 31008KT P6SM SKC
     FM250700 32007KT P6SM SKC
     FM251900 10007KT P6SM SCT100 BKN250=



000
FTUS41 KCTP 242338
TAFMDT
TAF
KMDT 242338Z 2500/2524 31016G28KT P6SM FEW050
     FM250400 32007KT P6SM SKC
     FM252200 07007KT P6SM SCT100 BKN250=



000
FTUS41 KCTP 242338
TAFMDT
TAF
KMDT 242338Z 2500/2524 31016G28KT P6SM FEW050
     FM250400 32007KT P6SM SKC
     FM252200 07007KT P6SM SCT100 BKN250=



000
FTUS41 KCTP 242142 AAA
TAFMDT
TAF AMD
KMDT 242142Z 2422/2518 31016G28KT P6SM FEW050
     FM250400 32007KT P6SM SKC
     FM251700 29007KT P6SM SCT250=



000
FTUS41 KCTP 242142 AAA
TAFBFD
TAF AMD
KBFD 242142Z 2422/2518 31015G25KT P6SM SKC
     FM250100 32007KT P6SM SKC
     FM251300 35005KT P6SM BKN250=



000
FTUS41 KCTP 242142 AAA
TAFJST
TAF AMD
KJST 242142Z 2422/2518 30015G25KT P6SM SCT040
     FM250200 31008KT P6SM SKC
     FM250700 32007KT P6SM SKC
     FM251300 27007KT P6SM BKN100=



000
FTUS41 KCTP 242142 AAA
TAFJST
TAF AMD
KJST 242142Z 2422/2518 30015G25KT P6SM SCT040
     FM250200 31008KT P6SM SKC
     FM250700 32007KT P6SM SKC
     FM251300 27007KT P6SM BKN100=



000
FTUS41 KCTP 242142 AAA
TAFIPT
TAF AMD
KIPT 242142Z 2422/2518 30016G26KT P6SM SKC
     FM250200 31007KT P6SM SKC
     FM251300 28007KT P6SM SCT250=



000
FTUS41 KCTP 242142 AAA
TAFAOO
TAF AMD
KAOO 242142Z 2422/2518 32015G25KT P6SM SCT050
     FM250200 33007KT P6SM SKC
     FM251700 26007KT P6SM BKN100=



000
FTUS41 KCTP 242142 AAA
TAFUNV
TAF AMD
KUNV 242142Z 2422/2518 32015G25KT P6SM SCT050
     FM250200 33007KT P6SM SKC
     FM251700 26007KT P6SM SCT250=



000
FTUS41 KCTP 242142 AAA
TAFMDT
TAF AMD
KMDT 242142Z 2422/2518 31016G28KT P6SM FEW050
     FM250400 32007KT P6SM SKC
     FM251700 29007KT P6SM SCT250=



000
FTUS41 KCTP 242142 AAA
TAFIPT
TAF AMD
KIPT 242142Z 2422/2518 30016G26KT P6SM SKC
     FM250200 31007KT P6SM SKC
     FM251300 28007KT P6SM SCT250=



000
FTUS41 KCTP 242142 AAA
TAFAOO
TAF AMD
KAOO 242142Z 2422/2518 32015G25KT P6SM SCT050
     FM250200 33007KT P6SM SKC
     FM251700 26007KT P6SM BKN100=



000
FTUS41 KCTP 242142 AAA
TAFBFD
TAF AMD
KBFD 242142Z 2422/2518 31015G25KT P6SM SKC
     FM250100 32007KT P6SM SKC
     FM251300 35005KT P6SM BKN250=



000
FTUS41 KCTP 242142 AAA
TAFUNV
TAF AMD
KUNV 242142Z 2422/2518 32015G25KT P6SM SCT050
     FM250200 33007KT P6SM SKC
     FM251700 26007KT P6SM SCT250=



000
FTUS41 KCTP 241720
TAFJST
TAF
KJST 241720Z 2418/2518 30014G24KT P6SM SCT050
     FM250000 30009KT P6SM SKC
     FM250500 VRB04KT P6SM SCT250
     FM251300 VRB05KT P6SM BKN100=



000
FTUS41 KCTP 241720
TAFMDT
TAF
KMDT 241720Z 2418/2518 31014G24KT P6SM FEW050
     FM250000 31009KT P6SM SKC
     FM250500 32005KT P6SM SCT250=



000
FTUS41 KCTP 241720
TAFMDT
TAF
KMDT 241720Z 2418/2518 31014G24KT P6SM FEW050
     FM250000 31009KT P6SM SKC
     FM250500 32005KT P6SM SCT250=



000
FTUS41 KCTP 241720
TAFUNV
TAF
KUNV 241720Z 2418/2518 30013G22KT P6SM SCT050
     FM250000 31010KT P6SM SKC
     FM250500 VRB04KT P6SM SCT250=



000
FTUS41 KCTP 241720
TAFIPT
TAF
KIPT 241720Z 2418/2518 30014G24KT P6SM SCT060
     FM250000 31008KT P6SM SKC
     FM250500 VRB03KT P6SM SCT250
     FM251300 29005KT P6SM SCT250=



000
FTUS41 KCTP 241720
TAFUNV
TAF
KUNV 241720Z 2418/2518 30013G22KT P6SM SCT050
     FM250000 31010KT P6SM SKC
     FM250500 VRB04KT P6SM SCT250=



000
FTUS41 KCTP 241720
TAFAOO
TAF
KAOO 241720Z 2418/2518 32014G24KT P6SM SCT050
     FM250000 31007KT P6SM SKC
     FM250500 VRB03KT P6SM SCT250
     FM251700 28005KT P6SM BKN100=



000
FTUS41 KCTP 241720
TAFIPT
TAF
KIPT 241720Z 2418/2518 30014G24KT P6SM SCT060
     FM250000 31008KT P6SM SKC
     FM250500 VRB03KT P6SM SCT250
     FM251300 29005KT P6SM SCT250=



000
FTUS41 KCTP 241720
TAFJST
TAF
KJST 241720Z 2418/2518 30014G24KT P6SM SCT050
     FM250000 30009KT P6SM SKC
     FM250500 VRB04KT P6SM SCT250
     FM251300 VRB05KT P6SM BKN100=



000
FTUS41 KCTP 241720
TAFBFD
TAF
KBFD 241720Z 2418/2518 30014G24KT P6SM SCT040
     FM250000 31007KT P6SM SKC
     FM250500 VRB02KT P6SM SCT250
     FM251300 35005KT P6SM BKN250=



000
FTUS41 KCTP 241720
TAFAOO
TAF
KAOO 241720Z 2418/2518 32014G24KT P6SM SCT050
     FM250000 31007KT P6SM SKC
     FM250500 VRB03KT P6SM SCT250
     FM251700 28005KT P6SM BKN100=



000
FTUS41 KCTP 241720
TAFMDT
TAF
KMDT 241720Z 2418/2518 31014G24KT P6SM FEW050
     FM250000 31009KT P6SM SKC
     FM250500 32005KT P6SM SCT250=



000
FTUS41 KCTP 241720
TAFBFD
TAF
KBFD 241720Z 2418/2518 30014G24KT P6SM SCT040
     FM250000 31007KT P6SM SKC
     FM250500 VRB02KT P6SM SCT250
     FM251300 35005KT P6SM BKN250=



000
FTUS41 KCTP 241720
TAFBFD
TAF
KBFD 241720Z 2418/2518 30014G24KT P6SM SCT040
     FM250000 31007KT P6SM SKC
     FM250500 VRB02KT P6SM SCT250
     FM251300 35005KT P6SM BKN250=



000
FTUS41 KCTP 241720
TAFJST
TAF
KJST 241720Z 2418/2518 30014G24KT P6SM SCT050
     FM250000 30009KT P6SM SKC
     FM250500 VRB04KT P6SM SCT250
     FM251300 VRB05KT P6SM BKN100=



000
FTUS41 KCTP 241720
TAFMDT
TAF
KMDT 241720Z 2418/2518 31014G24KT P6SM FEW050
     FM250000 31009KT P6SM SKC
     FM250500 32005KT P6SM SCT250=



000
FTUS41 KCTP 241720
TAFUNV
TAF
KUNV 241720Z 2418/2518 30013G22KT P6SM SCT050
     FM250000 31010KT P6SM SKC
     FM250500 VRB04KT P6SM SCT250=



000
FTUS41 KCTP 241720
TAFIPT
TAF
KIPT 241720Z 2418/2518 30014G24KT P6SM SCT060
     FM250000 31008KT P6SM SKC
     FM250500 VRB03KT P6SM SCT250
     FM251300 29005KT P6SM SCT250=



000
FTUS41 KCTP 241720
TAFUNV
TAF
KUNV 241720Z 2418/2518 30013G22KT P6SM SCT050
     FM250000 31010KT P6SM SKC
     FM250500 VRB04KT P6SM SCT250=



000
FTUS41 KCTP 241720
TAFAOO
TAF
KAOO 241720Z 2418/2518 32014G24KT P6SM SCT050
     FM250000 31007KT P6SM SKC
     FM250500 VRB03KT P6SM SCT250
     FM251700 28005KT P6SM BKN100=



000
FTUS41 KCTP 241720
TAFJST
TAF
KJST 241720Z 2418/2518 30014G24KT P6SM SCT050
     FM250000 30009KT P6SM SKC
     FM250500 VRB04KT P6SM SCT250
     FM251300 VRB05KT P6SM BKN100=



000
FTUS41 KCTP 241720
TAFBFD
TAF
KBFD 241720Z 2418/2518 30014G24KT P6SM SCT040
     FM250000 31007KT P6SM SKC
     FM250500 VRB02KT P6SM SCT250
     FM251300 35005KT P6SM BKN250=



000
FTUS41 KCTP 241720
TAFIPT
TAF
KIPT 241720Z 2418/2518 30014G24KT P6SM SCT060
     FM250000 31008KT P6SM SKC
     FM250500 VRB03KT P6SM SCT250
     FM251300 29005KT P6SM SCT250=



000
FTUS41 KCTP 241720
TAFAOO
TAF
KAOO 241720Z 2418/2518 32014G24KT P6SM SCT050
     FM250000 31007KT P6SM SKC
     FM250500 VRB03KT P6SM SCT250
     FM251700 28005KT P6SM BKN100=



000
FTUS41 KCTP 241445 AAA
TAFBFD
TAF AMD
KBFD 241445Z 2415/2512 30013G30KT P6SM SCT035
     FM250000 31010KT P6SM SKC
     FM250500 VRB02KT P6SM SCT250=



000
FTUS41 KCTP 241445 AAA
TAFAOO
TAF AMD
KAOO 241445Z 2415/2512 32016G22KT P6SM SKC
     FM250000 31010KT P6SM SKC
     FM250500 VRB04KT P6SM SCT250=



000
FTUS41 KCTP 241445 AAA
TAFIPT
TAF AMD
KIPT 241445Z 2415/2512 30015G22KT P6SM -RA FEW060
     FM250000 31008KT P6SM SKC
     FM250500 VRB03KT P6SM SCT250=



000
FTUS41 KCTP 241445 AAA
TAFJST
TAF AMD
KJST 241445Z 2415/2512 30014G22KT P6SM SCT035
     FM250000 30010KT P6SM SKC
     FM250500 VRB04KT P6SM SCT250=



000
FTUS41 KCTP 241445 AAA
TAFMDT
TAF AMD
KMDT 241445Z 2415/2512 31015G25KT P6SM FEW050
     FM250000 31010KT P6SM SKC
     FM250500 32005KT P6SM SCT250=



000
FTUS41 KCTP 241445 AAA
TAFBFD
TAF AMD
KBFD 241445Z 2415/2512 30013G30KT P6SM SCT035
     FM250000 31010KT P6SM SKC
     FM250500 VRB02KT P6SM SCT250=



000
FTUS41 KCTP 241445 AAA
TAFJST
TAF AMD
KJST 241445Z 2415/2512 30014G22KT P6SM SCT035
     FM250000 30010KT P6SM SKC
     FM250500 VRB04KT P6SM SCT250=



000
FTUS41 KCTP 241445 AAA
TAFIPT
TAF AMD
KIPT 241445Z 2415/2512 30015G22KT P6SM -RA FEW060
     FM250000 31008KT P6SM SKC
     FM250500 VRB03KT P6SM SCT250=



000
FTUS41 KCTP 241445 AAA
TAFUNV
TAF AMD
KUNV 241445Z 2415/2512 30012G22KT P6SM SCT050
     FM250000 31010KT P6SM SKC
     FM250500 VRB04KT P6SM SCT250=



000
FTUS41 KCTP 241445 AAA
TAFMDT
TAF AMD
KMDT 241445Z 2415/2512 31015G25KT P6SM FEW050
     FM250000 31010KT P6SM SKC
     FM250500 32005KT P6SM SCT250=



000
FTUS41 KCTP 241445 AAA
TAFAOO
TAF AMD
KAOO 241445Z 2415/2512 32016G22KT P6SM SKC
     FM250000 31010KT P6SM SKC
     FM250500 VRB04KT P6SM SCT250=



000
FTUS41 KCTP 241445 AAA
TAFUNV
TAF AMD
KUNV 241445Z 2415/2512 30012G22KT P6SM SCT050
     FM250000 31010KT P6SM SKC
     FM250500 VRB04KT P6SM SCT250=



000
FTUS41 KCTP 241129
TAFBFD
TAF
KBFD 241129Z 2412/2512 28010G15KT P6SM BKN025
     FM241400 30015G25KT P6SM SCT035
     FM250000 31010KT P6SM SKC
     FM250500 VRB02KT P6SM SCT250=



000
FTUS41 KCTP 241129
TAFUNV
TAF
KUNV 241129Z 2412/2512 30010G15KT P6SM BKN045
     FM241400 29015G25KT P6SM SCT045
     FM250000 31010KT P6SM SKC
     FM250500 VRB04KT P6SM SCT250=



000
FTUS41 KCTP 241129
TAFAOO
TAF
KAOO 241129Z 2412/2512 32010G15KT P6SM BKN040
     FM241400 31015G25KT P6SM SCT040
     FM250000 31010KT P6SM SKC
     FM250500 VRB04KT P6SM SCT250=



000
FTUS41 KCTP 241129
TAFIPT
TAF
KIPT 241129Z 2412/2512 30010G20KT P6SM BKN050
     FM241400 29015G25KT P6SM SCT050
     FM250000 31008KT P6SM SKC
     FM250500 VRB03KT P6SM SCT250=



000
FTUS41 KCTP 241129
TAFMDT
TAF
KMDT 241129Z 2412/2512 32010G20KT P6SM OVC050
     FM241400 31015G25KT P6SM SCT050
     FM250000 31010KT P6SM SKC
     FM250500 32005KT P6SM SCT250=



000
FTUS41 KCTP 241129
TAFJST
TAF
KJST 241129Z 2412/2512 29010G20KT P6SM SCT025
     FM241400 29015G25KT P6SM SCT035
     FM250000 30010KT P6SM SKC
     FM250500 VRB04KT P6SM SCT250=



000
FTUS41 KCTP 241129
TAFBFD
TAF
KBFD 241129Z 2412/2512 28010G15KT P6SM BKN025
     FM241400 30015G25KT P6SM SCT035
     FM250000 31010KT P6SM SKC
     FM250500 VRB02KT P6SM SCT250=



000
FTUS41 KCTP 241129
TAFUNV
TAF
KUNV 241129Z 2412/2512 30010G15KT P6SM BKN045
     FM241400 29015G25KT P6SM SCT045
     FM250000 31010KT P6SM SKC
     FM250500 VRB04KT P6SM SCT250=



000
FTUS41 KCTP 241129
TAFAOO
TAF
KAOO 241129Z 2412/2512 32010G15KT P6SM BKN040
     FM241400 31015G25KT P6SM SCT040
     FM250000 31010KT P6SM SKC
     FM250500 VRB04KT P6SM SCT250=



000
FTUS41 KCTP 241129
TAFMDT
TAF
KMDT 241129Z 2412/2512 32010G20KT P6SM OVC050
     FM241400 31015G25KT P6SM SCT050
     FM250000 31010KT P6SM SKC
     FM250500 32005KT P6SM SCT250=



000
FTUS41 KCTP 241129
TAFUNV
TAF
KUNV 241129Z 2412/2512 30010G15KT P6SM BKN045
     FM241400 29015G25KT P6SM SCT045
     FM250000 31010KT P6SM SKC
     FM250500 VRB04KT P6SM SCT250=



000
FTUS41 KCTP 241129
TAFBFD
TAF
KBFD 241129Z 2412/2512 28010G15KT P6SM BKN025
     FM241400 30015G25KT P6SM SCT035
     FM250000 31010KT P6SM SKC
     FM250500 VRB02KT P6SM SCT250=



000
FTUS41 KCTP 241129
TAFAOO
TAF
KAOO 241129Z 2412/2512 32010G15KT P6SM BKN040
     FM241400 31015G25KT P6SM SCT040
     FM250000 31010KT P6SM SKC
     FM250500 VRB04KT P6SM SCT250=



000
FTUS41 KCTP 241129
TAFIPT
TAF
KIPT 241129Z 2412/2512 30010G20KT P6SM BKN050
     FM241400 29015G25KT P6SM SCT050
     FM250000 31008KT P6SM SKC
     FM250500 VRB03KT P6SM SCT250=



000
FTUS41 KCTP 241129
TAFIPT
TAF
KIPT 241129Z 2412/2512 30010G20KT P6SM BKN050
     FM241400 29015G25KT P6SM SCT050
     FM250000 31008KT P6SM SKC
     FM250500 VRB03KT P6SM SCT250=



000
FTUS41 KCTP 241129
TAFJST
TAF
KJST 241129Z 2412/2512 29010G20KT P6SM SCT025
     FM241400 29015G25KT P6SM SCT035
     FM250000 30010KT P6SM SKC
     FM250500 VRB04KT P6SM SCT250=



000
FTUS41 KCTP 241129
TAFMDT
TAF
KMDT 241129Z 2412/2512 32010G20KT P6SM OVC050
     FM241400 31015G25KT P6SM SCT050
     FM250000 31010KT P6SM SKC
     FM250500 32005KT P6SM SCT250=



000
FTUS41 KCTP 241129
TAFJST
TAF
KJST 241129Z 2412/2512 29010G20KT P6SM SCT025
     FM241400 29015G25KT P6SM SCT035
     FM250000 30010KT P6SM SKC
     FM250500 VRB04KT P6SM SCT250=



000
FTUS41 KCTP 241129
TAFBFD
TAF
KBFD 241129Z 2412/2512 28010G15KT P6SM BKN025
     FM241400 30015G25KT P6SM SCT035
     FM250000 31010KT P6SM SKC
     FM250500 VRB02KT P6SM SCT250=



000
FTUS41 KCTP 241129
TAFAOO
TAF
KAOO 241129Z 2412/2512 32010G15KT P6SM BKN040
     FM241400 31015G25KT P6SM SCT040
     FM250000 31010KT P6SM SKC
     FM250500 VRB04KT P6SM SCT250=



000
FTUS41 KCTP 241129
TAFMDT
TAF
KMDT 241129Z 2412/2512 32010G20KT P6SM OVC050
     FM241400 31015G25KT P6SM SCT050
     FM250000 31010KT P6SM SKC
     FM250500 32005KT P6SM SCT250=



000
FTUS41 KCTP 241129
TAFUNV
TAF
KUNV 241129Z 2412/2512 30010G15KT P6SM BKN045
     FM241400 29015G25KT P6SM SCT045
     FM250000 31010KT P6SM SKC
     FM250500 VRB04KT P6SM SCT250=



000
FTUS41 KCTP 241129
TAFIPT
TAF
KIPT 241129Z 2412/2512 30010G20KT P6SM BKN050
     FM241400 29015G25KT P6SM SCT050
     FM250000 31008KT P6SM SKC
     FM250500 VRB03KT P6SM SCT250=



000
FTUS41 KCTP 241129
TAFJST
TAF
KJST 241129Z 2412/2512 29010G20KT P6SM SCT025
     FM241400 29015G25KT P6SM SCT035
     FM250000 30010KT P6SM SKC
     FM250500 VRB04KT P6SM SCT250=



000
FTUS41 KCTP 240923 AAA
TAFIPT
TAF AMD
KIPT 240923Z 2409/2506 29010G15KT P6SM OVC050
     FM241400 29015G25KT P6SM SCT050
     FM250000 31008KT P6SM SKC
     FM250500 VRB03KT P6SM SCT250=



000
FTUS41 KCTP 240923 AAA
TAFUNV
TAF AMD
KUNV 240923Z 2409/2506 29010G15KT P6SM OVC040
     FM241300 29015G25KT P6SM SCT040
     FM250000 31010KT P6SM SKC
     FM250500 VRB04KT P6SM SCT250=



000
FTUS41 KCTP 240923 AAA
TAFMDT
TAF AMD
KMDT 240923Z 2409/2506 33010G15KT P6SM OVC050
     FM241400 31015G25KT P6SM SCT050
     FM250000 31010KT P6SM SKC
     FM250500 32005KT P6SM SCT250=



000
FTUS41 KCTP 240923 AAA
TAFAOO
TAF AMD
KAOO 240923Z 2409/2506 31010G15KT P6SM BKN040
     FM241300 31015G25KT P6SM SCT040
     FM250000 31010KT P6SM SKC
     FM250500 VRB04KT P6SM SCT250=



000
FTUS41 KCTP 240923 AAA
TAFMDT
TAF AMD
KMDT 240923Z 2409/2506 33010G15KT P6SM OVC050
     FM241400 31015G25KT P6SM SCT050
     FM250000 31010KT P6SM SKC
     FM250500 32005KT P6SM SCT250=



000
FTUS41 KCTP 240923 AAA
TAFAOO
TAF AMD
KAOO 240923Z 2409/2506 31010G15KT P6SM BKN040
     FM241300 31015G25KT P6SM SCT040
     FM250000 31010KT P6SM SKC
     FM250500 VRB04KT P6SM SCT250=



000
FTUS41 KCTP 240923 AAA
TAFJST
TAF AMD
KJST 240923Z 2409/2506 30010G20KT P6SM BKN035
     FM241300 29015G25KT P6SM SCT035
     FM250000 30010KT P6SM SKC
     FM250500 VRB04KT P6SM SCT250=



000
FTUS41 KCTP 240923 AAA
TAFUNV
TAF AMD
KUNV 240923Z 2409/2506 29010G15KT P6SM OVC040
     FM241300 29015G25KT P6SM SCT040
     FM250000 31010KT P6SM SKC
     FM250500 VRB04KT P6SM SCT250=



000
FTUS41 KCTP 240923 AAA
TAFBFD
TAF AMD
KBFD 240923Z 2409/2506 30010G15KT P6SM BKN030
     FM241300 30015G25KT P6SM SCT035
     FM250000 31010KT P6SM SKC
     FM250500 VRB02KT P6SM SCT250=



000
FTUS41 KCTP 240923 AAA
TAFIPT
TAF AMD
KIPT 240923Z 2409/2506 29010G15KT P6SM OVC050
     FM241400 29015G25KT P6SM SCT050
     FM250000 31008KT P6SM SKC
     FM250500 VRB03KT P6SM SCT250=



000
FTUS41 KCTP 240923 AAA
TAFIPT
TAF AMD
KIPT 240923Z 2409/2506 29010G15KT P6SM OVC050
     FM241400 29015G25KT P6SM SCT050
     FM250000 31008KT P6SM SKC
     FM250500 VRB03KT P6SM SCT250=



000
FTUS41 KCTP 240923 AAA
TAFUNV
TAF AMD
KUNV 240923Z 2409/2506 29010G15KT P6SM OVC040
     FM241300 29015G25KT P6SM SCT040
     FM250000 31010KT P6SM SKC
     FM250500 VRB04KT P6SM SCT250=



000
FTUS41 KCTP 240923 AAA
TAFMDT
TAF AMD
KMDT 240923Z 2409/2506 33010G15KT P6SM OVC050
     FM241400 31015G25KT P6SM SCT050
     FM250000 31010KT P6SM SKC
     FM250500 32005KT P6SM SCT250=



000
FTUS41 KCTP 240923 AAA
TAFJST
TAF AMD
KJST 240923Z 2409/2506 30010G20KT P6SM BKN035
     FM241300 29015G25KT P6SM SCT035
     FM250000 30010KT P6SM SKC
     FM250500 VRB04KT P6SM SCT250=



000
FTUS41 KCTP 240923 AAA
TAFAOO
TAF AMD
KAOO 240923Z 2409/2506 31010G15KT P6SM BKN040
     FM241300 31015G25KT P6SM SCT040
     FM250000 31010KT P6SM SKC
     FM250500 VRB04KT P6SM SCT250=



000
FTUS41 KCTP 240923 AAA
TAFIPT
TAF AMD
KIPT 240923Z 2409/2506 29010G15KT P6SM OVC050
     FM241400 29015G25KT P6SM SCT050
     FM250000 31008KT P6SM SKC
     FM250500 VRB03KT P6SM SCT250=



000
FTUS41 KCTP 240923 AAA
TAFBFD
TAF AMD
KBFD 240923Z 2409/2506 30010G15KT P6SM BKN030
     FM241300 30015G25KT P6SM SCT035
     FM250000 31010KT P6SM SKC
     FM250500 VRB02KT P6SM SCT250=



000
FTUS41 KCTP 240923 AAA
TAFAOO
TAF AMD
KAOO 240923Z 2409/2506 31010G15KT P6SM BKN040
     FM241300 31015G25KT P6SM SCT040
     FM250000 31010KT P6SM SKC
     FM250500 VRB04KT P6SM SCT250=



000
FTUS41 KCTP 240923 AAA
TAFMDT
TAF AMD
KMDT 240923Z 2409/2506 33010G15KT P6SM OVC050
     FM241400 31015G25KT P6SM SCT050
     FM250000 31010KT P6SM SKC
     FM250500 32005KT P6SM SCT250=



000
FTUS41 KCTP 240923 AAA
TAFUNV
TAF AMD
KUNV 240923Z 2409/2506 29010G15KT P6SM OVC040
     FM241300 29015G25KT P6SM SCT040
     FM250000 31010KT P6SM SKC
     FM250500 VRB04KT P6SM SCT250=



000
FTUS41 KCTP 240923 AAA
TAFBFD
TAF AMD
KBFD 240923Z 2409/2506 30010G15KT P6SM BKN030
     FM241300 30015G25KT P6SM SCT035
     FM250000 31010KT P6SM SKC
     FM250500 VRB02KT P6SM SCT250=



000
FTUS41 KCTP 240923 AAA
TAFJST
TAF AMD
KJST 240923Z 2409/2506 30010G20KT P6SM BKN035
     FM241300 29015G25KT P6SM SCT035
     FM250000 30010KT P6SM SKC
     FM250500 VRB04KT P6SM SCT250=



000
FTUS41 KCTP 240923 AAA
TAFBFD
TAF AMD
KBFD 240923Z 2409/2506 30010G15KT P6SM BKN030
     FM241300 30015G25KT P6SM SCT035
     FM250000 31010KT P6SM SKC
     FM250500 VRB02KT P6SM SCT250=



000
FTUS41 KCTP 240923 AAA
TAFJST
TAF AMD
KJST 240923Z 2409/2506 30010G20KT P6SM BKN035
     FM241300 29015G25KT P6SM SCT035
     FM250000 30010KT P6SM SKC
     FM250500 VRB04KT P6SM SCT250=



000
FTUS41 KCTP 240541
TAFMDT
TAF
KMDT 240541Z 2406/2506 33010G15KT P6SM BKN050
     FM241400 31015G25KT P6SM SCT050
     FM250000 31010KT P6SM SKC
     FM250500 32005KT P6SM SCT250=



000
FTUS41 KCTP 240541
TAFBFD
TAF
KBFD 240541Z 2406/2506 30010G15KT 6SM -SHSN OVC025
     FM241300 30015G25KT P6SM SCT025
     FM250000 31010KT P6SM SKC
     FM250500 VRB02KT P6SM SCT250=



000
FTUS41 KCTP 240541
TAFIPT
TAF
KIPT 240541Z 2406/2506 31010G15KT P6SM OVC040
     FM241400 29015G25KT P6SM SCT040
     FM250000 31008KT P6SM SKC
     FM250500 VRB03KT P6SM SCT250=



000
FTUS41 KCTP 240541
TAFAOO
TAF
KAOO 240541Z 2406/2506 31010G15KT P6SM OVC035
     FM241300 31015G25KT P6SM SCT040
     FM250000 31010KT P6SM SKC
     FM250500 VRB04KT P6SM SCT250=



000
FTUS41 KCTP 240541
TAFUNV
TAF
KUNV 240541Z 2406/2506 29010G15KT P6SM OVC035
     FM241300 29015G25KT P6SM SCT040
     FM250000 31010KT P6SM SKC
     FM250500 VRB04KT P6SM SCT250=



000
FTUS41 KCTP 240541
TAFJST
TAF
KJST 240541Z 2406/2506 30010G20KT P6SM OVC025
     FM241300 29015G25KT P6SM SCT030
     FM250000 30010KT P6SM SKC
     FM250500 VRB04KT P6SM SCT250=



000
FTUS41 KCTP 240447 AAC
TAFUNV
TAF AMD
KUNV 240447Z 2405/2424 30010KT P6SM -SHSN OVC035
     FM241400 31015G25KT P6SM SCT040=



000
FTUS41 KCTP 240447 AAC
TAFUNV
TAF AMD
KUNV 240447Z 2405/2424 30010KT P6SM -SHSN OVC035
     FM241400 31015G25KT P6SM SCT040=



000
FTUS41 KCTP 240447 AAC
TAFUNV
TAF AMD
KUNV 240447Z 2405/2424 30010KT P6SM -SHSN OVC035
     FM241400 31015G25KT P6SM SCT040=



000
FTUS41 KCTP 240327 AAA
TAFIPT
TAF AMD
KIPT 240327Z 2403/2424 29015G25KT P6SM OVC035
     FM241400 30015G25KT P6SM SCT040=



000
FTUS41 KCTP 240327 AAA
TAFIPT
TAF AMD
KIPT 240327Z 2403/2424 29015G25KT P6SM OVC035
     FM241400 30015G25KT P6SM SCT040=



000
FTUS41 KCTP 240327 AAB
TAFUNV
TAF AMD
KUNV 240327Z 2403/2424 30012G22KT P6SM -SHSN OVC035
      TEMPO 2403/2406 1SM -SHSN BR OVC015
     FM241400 31015G25KT P6SM SCT040=



000
FTUS41 KCTP 240327 AAA
TAFMDT
TAF AMD
KMDT 240327Z 2403/2424 32016G28KT P6SM BKN040
     FM241400 34015G25KT P6SM SCT040=



000
FTUS41 KCTP 240327 AAB
TAFBFD
TAF AMD
KBFD 240327Z 2403/2424 29010G20KT P6SM -SHSN OVC020
     FM241400 31014G24KT P6SM SCT025=



000
FTUS41 KCTP 240327 AAA
TAFJST
TAF AMD
KJST 240327Z 2403/2424 31015G25KT P6SM -SHSN OVC020
     FM241400 33015G25KT P6SM SCT035=



000
FTUS41 KCTP 240327 AAA
TAFAOO
TAF AMD
KAOO 240327Z 2403/2424 30012G22KT P6SM -SHSN OVC035
     FM241400 31015G25KT P6SM SCT040=



000
FTUS41 KCTP 240327 AAA
TAFAOO
TAF AMD
KAOO 240327Z 2403/2424 30012G22KT P6SM -SHSN OVC035
     FM241400 31015G25KT P6SM SCT040=



000
FTUS41 KCTP 240327 AAA
TAFMDT
TAF AMD
KMDT 240327Z 2403/2424 32016G28KT P6SM BKN040
     FM241400 34015G25KT P6SM SCT040=



000
FTUS41 KCTP 240327 AAB
TAFBFD
TAF AMD
KBFD 240327Z 2403/2424 29010G20KT P6SM -SHSN OVC020
     FM241400 31014G24KT P6SM SCT025=



000
FTUS41 KCTP 240327 AAB
TAFUNV
TAF AMD
KUNV 240327Z 2403/2424 30012G22KT P6SM -SHSN OVC035
      TEMPO 2403/2406 1SM -SHSN BR OVC015
     FM241400 31015G25KT P6SM SCT040=



000
FTUS41 KCTP 240327 AAA
TAFJST
TAF AMD
KJST 240327Z 2403/2424 31015G25KT P6SM -SHSN OVC020
     FM241400 33015G25KT P6SM SCT035=



000
FTUS41 KCTP 240126 AAA
TAFUNV
TAF AMD
KUNV 240126Z 2401/2424 30015G25KT P6SM OVC030
     FM241400 31015G25KT P6SM SCT040=



000
FTUS41 KCTP 240043 AAA
TAFBFD
TAF AMD
KBFD 240043Z 2401/2424 29010G20KT 5SM -SHSN BR OVC015
     FM241400 31014G24KT P6SM SCT025=



000
FTUS41 KCTP 240043 AAA
TAFBFD
TAF AMD
KBFD 240043Z 2401/2424 29010G20KT 5SM -SHSN BR OVC015
     FM241400 31014G24KT P6SM SCT025=



000
FTUS41 KCTP 240043 AAA
TAFBFD
TAF AMD
KBFD 240043Z 2401/2424 29010G20KT 5SM -SHSN BR OVC015
     FM241400 31014G24KT P6SM SCT025=



000
FTUS41 KCTP 240043 AAA
TAFBFD
TAF AMD
KBFD 240043Z 2401/2424 29010G20KT 5SM -SHSN BR OVC015
     FM241400 31014G24KT P6SM SCT025=



000
FTUS41 KCTP 232332
TAFAOO
TAF
KAOO 232332Z 2400/2424 29014G24KT P6SM OVC035
     FM241400 31015G25KT P6SM SCT040=



000
FTUS41 KCTP 232332
TAFMDT
TAF
KMDT 232332Z 2400/2424 32012G22KT P6SM BKN040
     FM241400 34015G25KT P6SM SCT040=



000
FTUS41 KCTP 232332
TAFBFD
TAF
KBFD 232332Z 2400/2424 29010G20KT P6SM OVC015
     FM241400 31014G24KT P6SM SCT025=



000
FTUS41 KCTP 232332
TAFIPT
TAF
KIPT 232332Z 2400/2424 29015G25KT P6SM OVC035
     FM241400 30015G25KT P6SM SCT040=



000
FTUS41 KCTP 232332
TAFUNV
TAF
KUNV 232332Z 2400/2424 30015G25KT P6SM OVC035
     FM241400 31015G25KT P6SM SCT040=



000
FTUS41 KCTP 232332
TAFJST
TAF
KJST 232332Z 2400/2424 31015G25KT P6SM BKN030
     FM241400 33015G25KT P6SM SCT035=



000
FTUS41 KCTP 232332
TAFIPT
TAF
KIPT 232332Z 2400/2424 29015G25KT P6SM OVC035
     FM241400 30015G25KT P6SM SCT040=



000
FTUS41 KCTP 232332
TAFUNV
TAF
KUNV 232332Z 2400/2424 30015G25KT P6SM OVC035
     FM241400 31015G25KT P6SM SCT040=



000
FTUS41 KCTP 232332
TAFAOO
TAF
KAOO 232332Z 2400/2424 29014G24KT P6SM OVC035
     FM241400 31015G25KT P6SM SCT040=



000
FTUS41 KCTP 232332
TAFJST
TAF
KJST 232332Z 2400/2424 31015G25KT P6SM BKN030
     FM241400 33015G25KT P6SM SCT035=



000
FTUS41 KCTP 232332
TAFBFD
TAF
KBFD 232332Z 2400/2424 29010G20KT P6SM OVC015
     FM241400 31014G24KT P6SM SCT025=



000
FTUS41 KCTP 232332
TAFMDT
TAF
KMDT 232332Z 2400/2424 32012G22KT P6SM BKN040
     FM241400 34015G25KT P6SM SCT040=



000
FTUS41 KCTP 232332
TAFBFD
TAF
KBFD 232332Z 2400/2424 29010G20KT P6SM OVC015
     FM241400 31014G24KT P6SM SCT025=



000
FTUS41 KCTP 232332
TAFBFD
TAF
KBFD 232332Z 2400/2424 29010G20KT P6SM OVC015
     FM241400 31014G24KT P6SM SCT025=



000
FTUS41 KCTP 232332
TAFJST
TAF
KJST 232332Z 2400/2424 31015G25KT P6SM BKN030
     FM241400 33015G25KT P6SM SCT035=



000
FTUS41 KCTP 232332
TAFAOO
TAF
KAOO 232332Z 2400/2424 29014G24KT P6SM OVC035
     FM241400 31015G25KT P6SM SCT040=



000
FTUS41 KCTP 232332
TAFUNV
TAF
KUNV 232332Z 2400/2424 30015G25KT P6SM OVC035
     FM241400 31015G25KT P6SM SCT040=



000
FTUS41 KCTP 232332
TAFAOO
TAF
KAOO 232332Z 2400/2424 29014G24KT P6SM OVC035
     FM241400 31015G25KT P6SM SCT040=



000
FTUS41 KCTP 232332
TAFMDT
TAF
KMDT 232332Z 2400/2424 32012G22KT P6SM BKN040
     FM241400 34015G25KT P6SM SCT040=



000
FTUS41 KCTP 232332
TAFUNV
TAF
KUNV 232332Z 2400/2424 30015G25KT P6SM OVC035
     FM241400 31015G25KT P6SM SCT040=



000
FTUS41 KCTP 232332
TAFIPT
TAF
KIPT 232332Z 2400/2424 29015G25KT P6SM OVC035
     FM241400 30015G25KT P6SM SCT040=



000
FTUS41 KCTP 232332
TAFIPT
TAF
KIPT 232332Z 2400/2424 29015G25KT P6SM OVC035
     FM241400 30015G25KT P6SM SCT040=



000
FTUS41 KCTP 232332
TAFMDT
TAF
KMDT 232332Z 2400/2424 32012G22KT P6SM BKN040
     FM241400 34015G25KT P6SM SCT040=



000
FTUS41 KCTP 232332
TAFJST
TAF
KJST 232332Z 2400/2424 31015G25KT P6SM BKN030
     FM241400 33015G25KT P6SM SCT035=



000
FTUS41 KCTP 232130 AAA
TAFMDT
TAF AMD
KMDT 232130Z 2322/2418 32012G22KT P6SM BKN040
     FM241400 34015G25KT P6SM SCT040=



000
FTUS41 KCTP 232130 AAA
TAFAOO
TAF AMD
KAOO 232130Z 2322/2418 29014G24KT P6SM OVC035
     FM241400 31015G25KT P6SM SCT040=



000
FTUS41 KCTP 232130 AAC
TAFUNV
TAF AMD
KUNV 232130Z 2322/2418 30015G25KT P6SM OVC035
     FM241400 31015G25KT P6SM SCT040=



000
FTUS41 KCTP 232130 AAA
TAFMDT
TAF AMD
KMDT 232130Z 2322/2418 32012G22KT P6SM BKN040
     FM241400 34015G25KT P6SM SCT040=



000
FTUS41 KCTP 232130 AAA
TAFIPT
TAF AMD
KIPT 232130Z 2322/2418 29015G25KT P6SM OVC035
     FM241400 30015G25KT P6SM SCT040=



000
FTUS41 KCTP 232130 AAB
TAFBFD
TAF AMD
KBFD 232130Z 2322/2418 29012KT P6SM -SHSN OVC015
     FM240000 30010KT P6SM OVC020
     FM241400 31014G24KT P6SM SCT025=



000
FTUS41 KCTP 232130 AAC
TAFJST
TAF AMD
KJST 232130Z 2322/2418 31015G25KT P6SM BKN030
     FM241400 33015G25KT P6SM SCT035=



000
FTUS41 KCTP 232130 AAB
TAFBFD
TAF AMD
KBFD 232130Z 2322/2418 29012KT P6SM -SHSN OVC015
     FM240000 30010KT P6SM OVC020
     FM241400 31014G24KT P6SM SCT025=



000
FTUS41 KCTP 232130 AAC
TAFJST
TAF AMD
KJST 232130Z 2322/2418 31015G25KT P6SM BKN030
     FM241400 33015G25KT P6SM SCT035=



000
FTUS41 KCTP 232130 AAA
TAFAOO
TAF AMD
KAOO 232130Z 2322/2418 29014G24KT P6SM OVC035
     FM241400 31015G25KT P6SM SCT040=



000
FTUS41 KCTP 232130 AAC
TAFUNV
TAF AMD
KUNV 232130Z 2322/2418 30015G25KT P6SM OVC035
     FM241400 31015G25KT P6SM SCT040=



000
FTUS41 KCTP 232130 AAA
TAFIPT
TAF AMD
KIPT 232130Z 2322/2418 29015G25KT P6SM OVC035
     FM241400 30015G25KT P6SM SCT040=



000
FTUS41 KCTP 232041 AAB
TAFUNV
TAF AMD
KUNV 232041Z 2321/2418 32010G20KT P6SM OVC035
     FM240000 28010KT P6SM BKN040
     FM241200 29013KT P6SM SCT040=



000
FTUS41 KCTP 232041 AAB
TAFUNV
TAF AMD
KUNV 232041Z 2321/2418 32010G20KT P6SM OVC035
     FM240000 28010KT P6SM BKN040
     FM241200 29013KT P6SM SCT040=



000
FTUS41 KCTP 232041 AAB
TAFUNV
TAF AMD
KUNV 232041Z 2321/2418 32010G20KT P6SM OVC035
     FM240000 28010KT P6SM BKN040
     FM241200 29013KT P6SM SCT040=



000
FTUS41 KCTP 232039 AAB
TAFJST
TAF AMD
KJST 232039Z 2321/2418 30015G25KT P6SM SCT025 BKN035
     FM240000 30012KT P6SM OVC040
     FM240400 29010KT P6SM BKN040
     FM241200 29013KT P6SM SCT040=



000
FTUS41 KCTP 232039 AAB
TAFJST
TAF AMD
KJST 232039Z 2321/2418 30015G25KT P6SM SCT025 BKN035
     FM240000 30012KT P6SM OVC040
     FM240400 29010KT P6SM BKN040
     FM241200 29013KT P6SM SCT040=



000
FTUS41 KCTP 231938 AAA
TAFUNV
TAF AMD
KUNV 231938Z 2320/2418 32011G17KT 6SM -SHSN SCT010 OVC030
     FM232100 27015G25KT P6SM BKN040
     FM240000 28010KT P6SM BKN050
     FM241200 29013KT P6SM SCT040=



000
FTUS41 KCTP 231938 AAA
TAFUNV
TAF AMD
KUNV 231938Z 2320/2418 32011G17KT 6SM -SHSN SCT010 OVC030
     FM232100 27015G25KT P6SM BKN040
     FM240000 28010KT P6SM BKN050
     FM241200 29013KT P6SM SCT040=



000
FTUS41 KCTP 231906 AAA
TAFJST
TAF AMD
KJST 231906Z 2319/2418 27013G24KT 6SM -SHSN BKN030 OVC050
     FM240000 30012KT P6SM OVC040
     FM240400 29010KT P6SM BKN040
     FM241200 29013KT P6SM SCT040=



000
FTUS41 KCTP 231905 AAA
TAFBFD
TAF AMD
KBFD 231905Z 2319/2418 29013KT 6SM -SHSN OVC018
      TEMPO 2319/2321 2SM -SHSN BKN012
     FM240000 30010KT P6SM VCSH OVC025
     FM240400 29010KT P6SM BKN050
     FM241400 31014G21KT P6SM OVC100=



000
FTUS41 KCTP 231905 AAA
TAFBFD
TAF AMD
KBFD 231905Z 2319/2418 29013KT 6SM -SHSN OVC018
      TEMPO 2319/2321 2SM -SHSN BKN012
     FM240000 30010KT P6SM VCSH OVC025
     FM240400 29010KT P6SM BKN050
     FM241400 31014G21KT P6SM OVC100=



000
FTUS41 KCTP 231905 AAA
TAFBFD
TAF AMD
KBFD 231905Z 2319/2418 29013KT 6SM -SHSN OVC018
      TEMPO 2319/2321 2SM -SHSN BKN012
     FM240000 30010KT P6SM VCSH OVC025
     FM240400 29010KT P6SM BKN050
     FM241400 31014G21KT P6SM OVC100=



000
FTUS41 KCTP 231905 AAA
TAFBFD
TAF AMD
KBFD 231905Z 2319/2418 29013KT 6SM -SHSN OVC018
      TEMPO 2319/2321 2SM -SHSN BKN012
     FM240000 30010KT P6SM VCSH OVC025
     FM240400 29010KT P6SM BKN050
     FM241400 31014G21KT P6SM OVC100=



000
FTUS41 KCTP 231746
TAFJST
TAF
KJST 231746Z 2318/2418 27013G24KT P6SM VCSH BKN040 OVC050
     FM240000 30012KT P6SM OVC040
     FM240400 29010KT P6SM BKN040
     FM241200 29013KT P6SM SCT040=



000
FTUS41 KCTP 231746
TAFIPT
TAF
KIPT 231746Z 2318/2418 29019G26KT P6SM VCSH FEW050 BKN060 BKN080
     FM240000 28007KT P6SM BKN050
     FM240900 28009KT P6SM BKN040
     FM241400 28010G22KT P6SM SCT040=



000
FTUS41 KCTP 231746
TAFAOO
TAF
KAOO 231746Z 2318/2418 28014G20KT P6SM VCSH SCT040 BKN050 OVC070
     FM240000 30012KT P6SM OVC040
     FM240400 29010KT P6SM BKN040
     FM241200 29013KT P6SM SCT040=



000
FTUS41 KCTP 231746
TAFMDT
TAF
KMDT 231746Z 2318/2418 31014G24KT P6SM OVC060
     FM240000 31014KT P6SM SCT050
     FM240600 31012KT P6SM SKC
     FM241300 31012G22KT P6SM SKC=



000
FTUS41 KCTP 231746
TAFBFD
TAF
KBFD 231746Z 2318/2418 29013KT 2SM -SN OVC014
      TEMPO 2318/2321 P6SM NSW BKN025
     FM240000 30010KT P6SM VCSH OVC025
     FM240400 29010KT P6SM BKN050
     FM241400 31014G21KT P6SM OVC100=



000
FTUS41 KCTP 231746
TAFUNV
TAF
KUNV 231746Z 2318/2418 32011G17KT 4SM -SN BR BKN010 OVC020
      TEMPO 2318/2321 P6SM NSW SCT010 BKN025
     FM232100 27015G25KT P6SM BKN040
     FM240000 28010KT P6SM BKN050
     FM241200 29013KT P6SM SCT040=



000
FTUS41 KCTP 231746
TAFIPT
TAF
KIPT 231746Z 2318/2418 29019G26KT P6SM VCSH FEW050 BKN060 BKN080
     FM240000 28007KT P6SM BKN050
     FM240900 28009KT P6SM BKN040
     FM241400 28010G22KT P6SM SCT040=



000
FTUS41 KCTP 231746
TAFBFD
TAF
KBFD 231746Z 2318/2418 29013KT 2SM -SN OVC014
      TEMPO 2318/2321 P6SM NSW BKN025
     FM240000 30010KT P6SM VCSH OVC025
     FM240400 29010KT P6SM BKN050
     FM241400 31014G21KT P6SM OVC100=



000
FTUS41 KCTP 231746
TAFMDT
TAF
KMDT 231746Z 2318/2418 31014G24KT P6SM OVC060
     FM240000 31014KT P6SM SCT050
     FM240600 31012KT P6SM SKC
     FM241300 31012G22KT P6SM SKC=



000
FTUS41 KCTP 231746
TAFAOO
TAF
KAOO 231746Z 2318/2418 28014G20KT P6SM VCSH SCT040 BKN050 OVC070
     FM240000 30012KT P6SM OVC040
     FM240400 29010KT P6SM BKN040
     FM241200 29013KT P6SM SCT040=



000
FTUS41 KCTP 231746
TAFJST
TAF
KJST 231746Z 2318/2418 27013G24KT P6SM VCSH BKN040 OVC050
     FM240000 30012KT P6SM OVC040
     FM240400 29010KT P6SM BKN040
     FM241200 29013KT P6SM SCT040=



000
FTUS41 KCTP 231746
TAFUNV
TAF
KUNV 231746Z 2318/2418 32011G17KT 4SM -SN BR BKN010 OVC020
      TEMPO 2318/2321 P6SM NSW SCT010 BKN025
     FM232100 27015G25KT P6SM BKN040
     FM240000 28010KT P6SM BKN050
     FM241200 29013KT P6SM SCT040=



    US Dept of Commerce
    National Oceanic and Atmospheric Administration
    National Weather Service
    1325 East West Highway
    Silver Spring, MD 20910
    Page Author: NWS Internet Services Team
Disclaimer
Information Quality
Credits
Glossary
Privacy Policy
Freedom of Information Act (FOIA)
About Us
Career Opportunities